sensor_id;sensor_type;location;lat;lon;timestamp;P1;durP1;ratioP1;P2;durP2;ratioP2
12886;SDS011;6511;49.746;6.094;2023-03-01T00:01:46;9.73;;;7.63;;
12886;SDS011;6511;49.746;6.094;2023-03-01T00:04:12;10.07;;;7.60;;
12886;SDS011;6511;49.746;6.094;2023-03-01T00:06:38;10.60;;;7.50;;
12886;SDS011;6511;49.746;6.094;2023-03-01T00:09:03;10.93;;;8.00;;
12886;SDS011;6511;49.746;6.094;2023-03-01T00:11:30;10.50;;;7.68;;
12886;SDS011;6511;49.746;6.094;2023-03-01T00:13:57;11.05;;;8.13;;
12886;SDS011;6511;49.746;6.094;2023-03-01T00:16:30;9.80;;;7.93;;
12886;SDS011;6511;49.746;6.094;2023-03-01T00:18:58;10.18;;;7.50;;
12886;SDS011;6511;49.746;6.094;2023-03-01T00:21:24;11.60;;;7.70;;
12886;SDS011;6511;49.746;6.094;2023-03-01T00:23:51;11.30;;;7.43;;
12886;SDS011;6511;49.746;6.094;2023-03-01T00:26:17;10.27;;;7.70;;
12886;SDS011;6511;49.746;6.094;2023-03-01T00:28:44;10.13;;;7.90;;
12886;SDS011;6511;49.746;6.094;2023-03-01T00:31:11;10.30;;;7.68;;
12886;SDS011;6511;49.746;6.094;2023-03-01T00:33:39;11.00;;;7.85;;
12886;SDS011;6511;49.746;6.094;2023-03-01T00:36:06;10.95;;;7.90;;
12886;SDS011;6511;49.746;6.094;2023-03-01T00:38:35;11.10;;;7.95;;
12886;SDS011;6511;49.746;6.094;2023-03-01T00:41:07;11.23;;;8.48;;
12886;SDS011;6511;49.746;6.094;2023-03-01T00:43:35;11.40;;;8.60;;
12886;SDS011;6511;49.746;6.094;2023-03-01T00:46:05;11.80;;;8.00;;
12886;SDS011;6511;49.746;6.094;2023-03-01T00:48:32;11.05;;;8.50;;
12886;SDS011;6511;49.746;6.094;2023-03-01T00:51:06;11.82;;;8.82;;
12886;SDS011;6511;49.746;6.094;2023-03-01T00:53:32;13.47;;;9.70;;
12886;SDS011;6511;49.746;6.094;2023-03-01T00:55:58;11.50;;;9.00;;
12886;SDS011;6511;49.746;6.094;2023-03-01T00:58:24;12.47;;;8.93;;
12886;SDS011;6511;49.746;6.094;2023-03-01T01:00:50;10.98;;;8.50;;
12886;SDS011;6511;49.746;6.094;2023-03-01T01:03:17;11.23;;;8.57;;
12886;SDS011;6511;49.746;6.094;2023-03-01T01:05:43;12.48;;;8.48;;
12886;SDS011;6511;49.746;6.094;2023-03-01T01:08:08;11.40;;;8.53;;
12886;SDS011;6511;49.746;6.094;2023-03-01T01:10:34;10.33;;;8.10;;
12886;SDS011;6511;49.746;6.094;2023-03-01T01:13:00;11.05;;;8.52;;
12886;SDS011;6511;49.746;6.094;2023-03-01T01:15:25;10.60;;;8.43;;
12886;SDS011;6511;49.746;6.094;2023-03-01T01:17:51;11.93;;;8.77;;
12886;SDS011;6511;49.746;6.094;2023-03-01T01:20:17;10.57;;;8.10;;
12886;SDS011;6511;49.746;6.094;2023-03-01T01:22:43;11.43;;;9.00;;
12886;SDS011;6511;49.746;6.094;2023-03-01T01:25:08;11.47;;;8.97;;
12886;SDS011;6511;49.746;6.094;2023-03-01T01:27:34;12.45;;;8.98;;
12886;SDS011;6511;49.746;6.094;2023-03-01T01:30:00;11.20;;;8.57;;
12886;SDS011;6511;49.746;6.094;2023-03-01T01:32:25;10.85;;;8.63;;
12886;SDS011;6511;49.746;6.094;2023-03-01T01:34:51;11.60;;;8.40;;
12886;SDS011;6511;49.746;6.094;2023-03-01T01:37:16;11.57;;;8.75;;
12886;SDS011;6511;49.746;6.094;2023-03-01T01:39:42;11.03;;;8.80;;
12886;SDS011;6511;49.746;6.094;2023-03-01T01:42:15;12.47;;;9.07;;
12886;SDS011;6511;49.746;6.094;2023-03-01T01:44:42;10.20;;;8.07;;
12886;SDS011;6511;49.746;6.094;2023-03-01T01:47:14;11.38;;;8.45;;
12886;SDS011;6511;49.746;6.094;2023-03-01T01:49:55;11.35;;;8.55;;
12886;SDS011;6511;49.746;6.094;2023-03-01T01:52:40;11.63;;;8.88;;
12886;SDS011;6511;49.746;6.094;2023-03-01T01:55:10;10.05;;;8.20;;
12886;SDS011;6511;49.746;6.094;2023-03-01T01:57:41;10.95;;;8.45;;
12886;SDS011;6511;49.746;6.094;2023-03-01T02:02:42;12.50;;;8.63;;
12886;SDS011;6511;49.746;6.094;2023-03-01T02:05:11;12.88;;;8.90;;
12886;SDS011;6511;49.746;6.094;2023-03-01T02:07:43;13.13;;;9.00;;
12886;SDS011;6511;49.746;6.094;2023-03-01T02:10:10;12.57;;;8.80;;
12886;SDS011;6511;49.746;6.094;2023-03-01T02:12:36;14.23;;;8.80;;
12886;SDS011;6511;49.746;6.094;2023-03-01T02:15:03;12.38;;;9.30;;
12886;SDS011;6511;49.746;6.094;2023-03-01T02:17:29;12.30;;;8.95;;
12886;SDS011;6511;49.746;6.094;2023-03-01T02:22:41;11.73;;;9.07;;
12886;SDS011;6511;49.746;6.094;2023-03-01T02:30:24;13.55;;;9.40;;
12886;SDS011;6511;49.746;6.094;2023-03-01T02:32:51;12.10;;;9.33;;
12886;SDS011;6511;49.746;6.094;2023-03-01T02:35:19;13.57;;;9.88;;
12886;SDS011;6511;49.746;6.094;2023-03-01T02:37:46;12.63;;;9.70;;
12886;SDS011;6511;49.746;6.094;2023-03-01T02:40:17;13.93;;;9.83;;
12886;SDS011;6511;49.746;6.094;2023-03-01T02:42:54;14.15;;;10.60;;
12886;SDS011;6511;49.746;6.094;2023-03-01T02:45:22;14.43;;;10.52;;
12886;SDS011;6511;49.746;6.094;2023-03-01T02:47:48;14.10;;;10.40;;
12886;SDS011;6511;49.746;6.094;2023-03-01T02:50:43;13.95;;;10.40;;
12886;SDS011;6511;49.746;6.094;2023-03-01T02:53:08;14.93;;;10.68;;
12886;SDS011;6511;49.746;6.094;2023-03-01T02:55:38;14.02;;;10.23;;
12886;SDS011;6511;49.746;6.094;2023-03-01T02:58:04;13.98;;;10.80;;
12886;SDS011;6511;49.746;6.094;2023-03-01T03:00:34;15.77;;;10.90;;
12886;SDS011;6511;49.746;6.094;2023-03-01T03:03:05;14.65;;;10.07;;
12886;SDS011;6511;49.746;6.094;2023-03-01T03:05:32;13.48;;;10.00;;
12886;SDS011;6511;49.746;6.094;2023-03-01T03:07:58;15.52;;;10.68;;
12886;SDS011;6511;49.746;6.094;2023-03-01T03:10:26;13.75;;;9.73;;
12886;SDS011;6511;49.746;6.094;2023-03-01T03:12:55;14.43;;;9.80;;
12886;SDS011;6511;49.746;6.094;2023-03-01T03:15:28;15.60;;;10.75;;
12886;SDS011;6511;49.746;6.094;2023-03-01T03:17:54;14.83;;;10.23;;
12886;SDS011;6511;49.746;6.094;2023-03-01T03:20:23;12.93;;;10.20;;
12886;SDS011;6511;49.746;6.094;2023-03-01T03:22:51;14.38;;;10.40;;
12886;SDS011;6511;49.746;6.094;2023-03-01T03:25:18;14.48;;;10.63;;
12886;SDS011;6511;49.746;6.094;2023-03-01T03:27:46;13.73;;;10.77;;
12886;SDS011;6511;49.746;6.094;2023-03-01T03:30:14;14.52;;;11.02;;
12886;SDS011;6511;49.746;6.094;2023-03-01T03:32:42;14.20;;;11.05;;
12886;SDS011;6511;49.746;6.094;2023-03-01T03:35:18;14.73;;;10.77;;
12886;SDS011;6511;49.746;6.094;2023-03-01T03:37:53;14.77;;;10.57;;
12886;SDS011;6511;49.746;6.094;2023-03-01T03:40:37;16.63;;;11.00;;
12886;SDS011;6511;49.746;6.094;2023-03-01T03:43:06;15.10;;;11.27;;
12886;SDS011;6511;49.746;6.094;2023-03-01T03:45:34;15.43;;;10.73;;
12886;SDS011;6511;49.746;6.094;2023-03-01T03:48:01;16.13;;;11.57;;
12886;SDS011;6511;49.746;6.094;2023-03-01T03:50:28;15.43;;;11.35;;
12886;SDS011;6511;49.746;6.094;2023-03-01T03:52:54;16.60;;;11.25;;
12886;SDS011;6511;49.746;6.094;2023-03-01T03:55:19;14.48;;;11.02;;
12886;SDS011;6511;49.746;6.094;2023-03-01T03:57:46;14.37;;;11.13;;
12886;SDS011;6511;49.746;6.094;2023-03-01T04:00:17;14.55;;;11.30;;
12886;SDS011;6511;49.746;6.094;2023-03-01T04:02:45;15.80;;;11.27;;
12886;SDS011;6511;49.746;6.094;2023-03-01T04:05:13;15.05;;;11.05;;
12886;SDS011;6511;49.746;6.094;2023-03-01T04:07:40;16.17;;;11.23;;
12886;SDS011;6511;49.746;6.094;2023-03-01T04:10:08;14.35;;;11.20;;
12886;SDS011;6511;49.746;6.094;2023-03-01T04:12:35;16.92;;;11.55;;
12886;SDS011;6511;49.746;6.094;2023-03-01T04:15:02;16.40;;;11.47;;
12886;SDS011;6511;49.746;6.094;2023-03-01T04:17:37;15.90;;;11.10;;
12886;SDS011;6511;49.746;6.094;2023-03-01T04:20:08;16.17;;;11.70;;
12886;SDS011;6511;49.746;6.094;2023-03-01T04:22:36;16.37;;;11.40;;
12886;SDS011;6511;49.746;6.094;2023-03-01T04:25:02;17.02;;;11.68;;
12886;SDS011;6511;49.746;6.094;2023-03-01T04:27:29;15.60;;;11.05;;
12886;SDS011;6511;49.746;6.094;2023-03-01T04:29:55;16.08;;;10.88;;
12886;SDS011;6511;49.746;6.094;2023-03-01T04:32:21;16.13;;;11.17;;
12886;SDS011;6511;49.746;6.094;2023-03-01T04:34:46;14.80;;;10.88;;
12886;SDS011;6511;49.746;6.094;2023-03-01T04:37:12;15.47;;;11.17;;
12886;SDS011;6511;49.746;6.094;2023-03-01T04:39:37;18.98;;;11.90;;
12886;SDS011;6511;49.746;6.094;2023-03-01T04:42:10;17.38;;;12.02;;
12886;SDS011;6511;49.746;6.094;2023-03-01T04:44:42;17.50;;;11.60;;
12886;SDS011;6511;49.746;6.094;2023-03-01T04:47:08;18.63;;;12.03;;
12886;SDS011;6511;49.746;6.094;2023-03-01T04:49:34;15.77;;;11.93;;
12886;SDS011;6511;49.746;6.094;2023-03-01T04:51:59;18.55;;;12.30;;
12886;SDS011;6511;49.746;6.094;2023-03-01T04:54:27;16.55;;;12.25;;
12886;SDS011;6511;49.746;6.094;2023-03-01T04:56:53;17.27;;;11.60;;
12886;SDS011;6511;49.746;6.094;2023-03-01T04:59:19;17.58;;;11.98;;
12886;SDS011;6511;49.746;6.094;2023-03-01T05:01:47;18.08;;;11.90;;
12886;SDS011;6511;49.746;6.094;2023-03-01T05:04:13;17.50;;;11.75;;
12886;SDS011;6511;49.746;6.094;2023-03-01T05:06:40;17.42;;;11.73;;
12886;SDS011;6511;49.746;6.094;2023-03-01T05:09:05;16.75;;;11.77;;
12886;SDS011;6511;49.746;6.094;2023-03-01T05:11:31;15.90;;;11.63;;
12886;SDS011;6511;49.746;6.094;2023-03-01T05:14:01;16.50;;;11.88;;
12886;SDS011;6511;49.746;6.094;2023-03-01T05:16:27;16.90;;;11.97;;
12886;SDS011;6511;49.746;6.094;2023-03-01T05:18:53;17.10;;;11.63;;
12886;SDS011;6511;49.746;6.094;2023-03-01T05:21:20;17.98;;;12.00;;
12886;SDS011;6511;49.746;6.094;2023-03-01T05:23:46;17.25;;;12.05;;
12886;SDS011;6511;49.746;6.094;2023-03-01T05:26:12;17.67;;;12.13;;
12886;SDS011;6511;49.746;6.094;2023-03-01T05:28:38;16.77;;;11.77;;
12886;SDS011;6511;49.746;6.094;2023-03-01T05:31:04;17.27;;;12.00;;
12886;SDS011;6511;49.746;6.094;2023-03-01T05:33:34;17.17;;;11.67;;
12886;SDS011;6511;49.746;6.094;2023-03-01T05:36:01;16.17;;;11.50;;
12886;SDS011;6511;49.746;6.094;2023-03-01T05:38:27;15.80;;;11.53;;
12886;SDS011;6511;49.746;6.094;2023-03-01T05:40:53;17.55;;;12.18;;
12886;SDS011;6511;49.746;6.094;2023-03-01T05:43:18;15.47;;;11.67;;
12886;SDS011;6511;49.746;6.094;2023-03-01T05:45:44;17.02;;;11.82;;
12886;SDS011;6511;49.746;6.094;2023-03-01T05:48:11;16.25;;;11.43;;
12886;SDS011;6511;49.746;6.094;2023-03-01T05:50:46;16.60;;;11.38;;
12886;SDS011;6511;49.746;6.094;2023-03-01T05:55:40;17.27;;;11.52;;
12886;SDS011;6511;49.746;6.094;2023-03-01T05:58:07;16.45;;;11.35;;
12886;SDS011;6511;49.746;6.094;2023-03-01T06:00:42;16.55;;;11.70;;
12886;SDS011;6511;49.746;6.094;2023-03-01T06:03:09;17.80;;;11.68;;
12886;SDS011;6511;49.746;6.094;2023-03-01T06:05:36;16.23;;;11.70;;
12886;SDS011;6511;49.746;6.094;2023-03-01T06:08:02;16.67;;;12.18;;
12886;SDS011;6511;49.746;6.094;2023-03-01T06:10:30;15.68;;;11.48;;
12886;SDS011;6511;49.746;6.094;2023-03-01T06:12:55;15.88;;;11.70;;
12886;SDS011;6511;49.746;6.094;2023-03-01T06:15:21;19.73;;;12.90;;
12886;SDS011;6511;49.746;6.094;2023-03-01T06:17:47;17.77;;;12.53;;
12886;SDS011;6511;49.746;6.094;2023-03-01T06:20:18;17.50;;;11.93;;
12886;SDS011;6511;49.746;6.094;2023-03-01T06:22:46;16.38;;;11.95;;
12886;SDS011;6511;49.746;6.094;2023-03-01T06:25:14;16.95;;;12.15;;
12886;SDS011;6511;49.746;6.094;2023-03-01T06:27:42;17.07;;;12.50;;
12886;SDS011;6511;49.746;6.094;2023-03-01T06:30:09;18.87;;;12.23;;
12886;SDS011;6511;49.746;6.094;2023-03-01T06:32:36;17.23;;;12.07;;
12886;SDS011;6511;49.746;6.094;2023-03-01T06:35:03;21.33;;;12.53;;
12886;SDS011;6511;49.746;6.094;2023-03-01T06:37:29;17.55;;;12.05;;
12886;SDS011;6511;49.746;6.094;2023-03-01T06:39:55;20.38;;;12.57;;
12886;SDS011;6511;49.746;6.094;2023-03-01T06:42:20;19.17;;;11.77;;
12886;SDS011;6511;49.746;6.094;2023-03-01T06:44:46;21.23;;;12.75;;
12886;SDS011;6511;49.746;6.094;2023-03-01T06:47:11;16.87;;;12.37;;
12886;SDS011;6511;49.746;6.094;2023-03-01T06:49:37;18.58;;;12.95;;
12886;SDS011;6511;49.746;6.094;2023-03-01T06:52:03;18.80;;;12.73;;
12886;SDS011;6511;49.746;6.094;2023-03-01T06:54:29;16.83;;;12.25;;
12886;SDS011;6511;49.746;6.094;2023-03-01T06:56:54;19.93;;;12.50;;
12886;SDS011;6511;49.746;6.094;2023-03-01T06:59:20;19.17;;;12.87;;
12886;SDS011;6511;49.746;6.094;2023-03-01T07:01:46;19.70;;;12.40;;
12886;SDS011;6511;49.746;6.094;2023-03-01T07:04:12;18.35;;;12.70;;
12886;SDS011;6511;49.746;6.094;2023-03-01T07:06:38;18.20;;;12.68;;
12886;SDS011;6511;49.746;6.094;2023-03-01T07:09:04;18.75;;;12.60;;
12886;SDS011;6511;49.746;6.094;2023-03-01T07:11:30;21.27;;;13.07;;
12886;SDS011;6511;49.746;6.094;2023-03-01T07:13:56;16.70;;;12.57;;
12886;SDS011;6511;49.746;6.094;2023-03-01T07:16:21;18.93;;;11.97;;
12886;SDS011;6511;49.746;6.094;2023-03-01T07:18:47;17.67;;;12.15;;
12886;SDS011;6511;49.746;6.094;2023-03-01T07:21:13;19.35;;;12.57;;
12886;SDS011;6511;49.746;6.094;2023-03-01T07:23:41;18.10;;;12.85;;
12886;SDS011;6511;49.746;6.094;2023-03-01T07:26:06;16.87;;;12.20;;
12886;SDS011;6511;49.746;6.094;2023-03-01T07:28:32;17.92;;;12.82;;
12886;SDS011;6511;49.746;6.094;2023-03-01T07:31:03;16.93;;;12.07;;
12886;SDS011;6511;49.746;6.094;2023-03-01T07:33:30;18.75;;;12.80;;
12886;SDS011;6511;49.746;6.094;2023-03-01T07:36:00;18.17;;;12.63;;
12886;SDS011;6511;49.746;6.094;2023-03-01T07:38:26;19.15;;;12.77;;
12886;SDS011;6511;49.746;6.094;2023-03-01T07:40:54;19.80;;;13.05;;
12886;SDS011;6511;49.746;6.094;2023-03-01T07:43:23;18.98;;;13.48;;
12886;SDS011;6511;49.746;6.094;2023-03-01T07:45:49;19.97;;;13.37;;
12886;SDS011;6511;49.746;6.094;2023-03-01T07:48:15;20.37;;;13.77;;
12886;SDS011;6511;49.746;6.094;2023-03-01T07:50:40;20.63;;;13.80;;
12886;SDS011;6511;49.746;6.094;2023-03-01T07:53:06;19.23;;;13.27;;
12886;SDS011;6511;49.746;6.094;2023-03-01T07:55:31;21.87;;;14.07;;
12886;SDS011;6511;49.746;6.094;2023-03-01T07:57:57;19.90;;;13.57;;
12886;SDS011;6511;49.746;6.094;2023-03-01T08:00:22;19.33;;;13.63;;
12886;SDS011;6511;49.746;6.094;2023-03-01T08:02:48;20.50;;;14.32;;
12886;SDS011;6511;49.746;6.094;2023-03-01T08:05:14;21.77;;;14.13;;
12886;SDS011;6511;49.746;6.094;2023-03-01T08:07:39;21.10;;;14.93;;
12886;SDS011;6511;49.746;6.094;2023-03-01T08:10:05;19.93;;;14.40;;
12886;SDS011;6511;49.746;6.094;2023-03-01T08:12:31;22.73;;;15.02;;
12886;SDS011;6511;49.746;6.094;2023-03-01T08:14:56;24.83;;;14.67;;
12886;SDS011;6511;49.746;6.094;2023-03-01T08:17:22;22.40;;;14.38;;
12886;SDS011;6511;49.746;6.094;2023-03-01T08:19:48;19.87;;;13.97;;
12886;SDS011;6511;49.746;6.094;2023-03-01T08:22:14;21.23;;;14.50;;
12886;SDS011;6511;49.746;6.094;2023-03-01T08:24:40;21.40;;;14.23;;
12886;SDS011;6511;49.746;6.094;2023-03-01T08:27:05;20.10;;;14.50;;
12886;SDS011;6511;49.746;6.094;2023-03-01T08:29:31;20.48;;;14.60;;
12886;SDS011;6511;49.746;6.094;2023-03-01T08:31:58;22.30;;;15.10;;
12886;SDS011;6511;49.746;6.094;2023-03-01T08:34:24;20.73;;;14.50;;
12886;SDS011;6511;49.746;6.094;2023-03-01T08:36:50;21.80;;;15.02;;
12886;SDS011;6511;49.746;6.094;2023-03-01T08:39:17;22.70;;;15.02;;
12886;SDS011;6511;49.746;6.094;2023-03-01T08:41:45;20.10;;;14.40;;
12886;SDS011;6511;49.746;6.094;2023-03-01T08:44:11;20.13;;;14.88;;
12886;SDS011;6511;49.746;6.094;2023-03-01T08:46:39;22.60;;;15.00;;
12886;SDS011;6511;49.746;6.094;2023-03-01T08:49:13;20.95;;;14.80;;
12886;SDS011;6511;49.746;6.094;2023-03-01T08:51:41;21.70;;;14.95;;
12886;SDS011;6511;49.746;6.094;2023-03-01T08:54:09;20.58;;;14.68;;
12886;SDS011;6511;49.746;6.094;2023-03-01T08:56:36;23.45;;;15.30;;
12886;SDS011;6511;49.746;6.094;2023-03-01T08:59:03;22.63;;;14.85;;
12886;SDS011;6511;49.746;6.094;2023-03-01T09:01:29;22.40;;;15.10;;
12886;SDS011;6511;49.746;6.094;2023-03-01T09:03:54;21.17;;;14.90;;
12886;SDS011;6511;49.746;6.094;2023-03-01T09:06:20;21.67;;;14.87;;
12886;SDS011;6511;49.746;6.094;2023-03-01T09:08:46;20.97;;;14.73;;
12886;SDS011;6511;49.746;6.094;2023-03-01T09:11:15;21.80;;;15.27;;
12886;SDS011;6511;49.746;6.094;2023-03-01T09:13:42;21.23;;;15.05;;
12886;SDS011;6511;49.746;6.094;2023-03-01T09:16:09;21.80;;;15.02;;
12886;SDS011;6511;49.746;6.094;2023-03-01T09:18:36;22.63;;;14.65;;
12886;SDS011;6511;49.746;6.094;2023-03-01T09:23:32;22.40;;;15.43;;
12886;SDS011;6511;49.746;6.094;2023-03-01T09:26:03;21.55;;;14.77;;
12886;SDS011;6511;49.746;6.094;2023-03-01T09:28:29;21.40;;;15.48;;
12886;SDS011;6511;49.746;6.094;2023-03-01T09:30:57;22.83;;;15.45;;
12886;SDS011;6511;49.746;6.094;2023-03-01T09:33:24;23.30;;;15.67;;
12886;SDS011;6511;49.746;6.094;2023-03-01T09:35:55;21.75;;;15.27;;
12886;SDS011;6511;49.746;6.094;2023-03-01T09:38:21;22.98;;;15.57;;
12886;SDS011;6511;49.746;6.094;2023-03-01T09:40:47;23.23;;;15.70;;
12886;SDS011;6511;49.746;6.094;2023-03-01T09:43:15;24.53;;;15.73;;
12886;SDS011;6511;49.746;6.094;2023-03-01T09:45:44;23.17;;;15.45;;
12886;SDS011;6511;49.746;6.094;2023-03-01T09:48:20;21.33;;;15.17;;
12886;SDS011;6511;49.746;6.094;2023-03-01T09:50:48;21.77;;;15.02;;
12886;SDS011;6511;49.746;6.094;2023-03-01T09:53:22;20.85;;;15.40;;
12886;SDS011;6511;49.746;6.094;2023-03-01T09:55:57;22.45;;;15.48;;
12886;SDS011;6511;49.746;6.094;2023-03-01T10:04:55;21.08;;;15.02;;
12886;SDS011;6511;49.746;6.094;2023-03-01T10:07:20;20.83;;;14.90;;
12886;SDS011;6511;49.746;6.094;2023-03-01T10:09:50;20.63;;;15.07;;
12886;SDS011;6511;49.746;6.094;2023-03-01T10:12:25;22.10;;;15.13;;
12886;SDS011;6511;49.746;6.094;2023-03-01T10:15:15;21.90;;;15.18;;
12886;SDS011;6511;49.746;6.094;2023-03-01T10:18:00;22.95;;;15.63;;
12886;SDS011;6511;49.746;6.094;2023-03-01T10:20:46;21.33;;;15.15;;
12886;SDS011;6511;49.746;6.094;2023-03-01T10:23:34;20.70;;;15.05;;
12886;SDS011;6511;49.746;6.094;2023-03-01T10:26:10;22.35;;;15.45;;
12886;SDS011;6511;49.746;6.094;2023-03-01T10:31:24;21.75;;;15.35;;
12886;SDS011;6511;49.746;6.094;2023-03-01T10:33:54;21.27;;;14.93;;
12886;SDS011;6511;49.746;6.094;2023-03-01T10:36:22;22.52;;;14.98;;
12886;SDS011;6511;49.746;6.094;2023-03-01T10:38:50;20.87;;;15.20;;
12886;SDS011;6511;49.746;6.094;2023-03-01T10:41:19;20.37;;;15.17;;
12886;SDS011;6511;49.746;6.094;2023-03-01T10:46:29;20.70;;;14.80;;
12886;SDS011;6511;49.746;6.094;2023-03-01T10:51:37;19.25;;;14.75;;
12886;SDS011;6511;49.746;6.094;2023-03-01T10:54:06;20.92;;;15.35;;
12886;SDS011;6511;49.746;6.094;2023-03-01T10:56:58;20.88;;;14.43;;
12886;SDS011;6511;49.746;6.094;2023-03-01T10:59:27;20.10;;;14.70;;
12886;SDS011;6511;49.746;6.094;2023-03-01T11:04:38;19.55;;;14.85;;
12886;SDS011;6511;49.746;6.094;2023-03-01T11:07:04;18.23;;;14.02;;
12886;SDS011;6511;49.746;6.094;2023-03-01T11:09:31;20.17;;;14.30;;
12886;SDS011;6511;49.746;6.094;2023-03-01T11:12:03;21.80;;;14.95;;
12886;SDS011;6511;49.746;6.094;2023-03-01T11:14:38;20.27;;;15.20;;
12886;SDS011;6511;49.746;6.094;2023-03-01T11:17:23;20.42;;;14.90;;
12886;SDS011;6511;49.746;6.094;2023-03-01T11:20:02;19.00;;;13.95;;
12886;SDS011;6511;49.746;6.094;2023-03-01T11:22:35;19.27;;;14.17;;
12886;SDS011;6511;49.746;6.094;2023-03-01T11:25:02;19.02;;;14.40;;
12886;SDS011;6511;49.746;6.094;2023-03-01T11:27:28;20.10;;;14.50;;
12886;SDS011;6511;49.746;6.094;2023-03-01T11:32:43;19.08;;;14.02;;
12886;SDS011;6511;49.746;6.094;2023-03-01T11:35:31;20.23;;;14.23;;
12886;SDS011;6511;49.746;6.094;2023-03-01T11:38:20;21.38;;;15.10;;
12886;SDS011;6511;49.746;6.094;2023-03-01T11:46:29;21.20;;;14.57;;
12886;SDS011;6511;49.746;6.094;2023-03-01T12:19:18;20.17;;;14.00;;
12886;SDS011;6511;49.746;6.094;2023-03-01T12:22:02;18.15;;;13.95;;
12886;SDS011;6511;49.746;6.094;2023-03-01T12:35:43;19.07;;;14.33;;
12886;SDS011;6511;49.746;6.094;2023-03-01T12:41:11;19.17;;;14.18;;
12886;SDS011;6511;49.746;6.094;2023-03-01T12:43:50;17.48;;;13.43;;
12886;SDS011;6511;49.746;6.094;2023-03-01T12:49:23;19.60;;;13.75;;
12886;SDS011;6511;49.746;6.094;2023-03-01T12:52:16;18.90;;;14.30;;
12886;SDS011;6511;49.746;6.094;2023-03-01T12:54:52;19.52;;;13.70;;
12886;SDS011;6511;49.746;6.094;2023-03-01T12:57:24;18.90;;;13.70;;
12886;SDS011;6511;49.746;6.094;2023-03-01T13:08:49;18.30;;;13.93;;
12886;SDS011;6511;49.746;6.094;2023-03-01T13:11:20;18.27;;;13.68;;
12886;SDS011;6511;49.746;6.094;2023-03-01T13:13:47;18.50;;;14.18;;
12886;SDS011;6511;49.746;6.094;2023-03-01T13:16:20;18.60;;;14.40;;
12886;SDS011;6511;49.746;6.094;2023-03-01T13:21:44;19.20;;;13.75;;
12886;SDS011;6511;49.746;6.094;2023-03-01T13:24:26;17.98;;;13.73;;
12886;SDS011;6511;49.746;6.094;2023-03-01T13:27:39;19.17;;;13.90;;
12886;SDS011;6511;49.746;6.094;2023-03-01T13:32:26;19.60;;;14.10;;
12886;SDS011;6511;49.746;6.094;2023-03-01T13:35:02;18.73;;;13.65;;
12886;SDS011;6511;49.746;6.094;2023-03-01T13:37:42;17.50;;;13.63;;
12886;SDS011;6511;49.746;6.094;2023-03-01T13:42:46;19.70;;;14.32;;
12886;SDS011;6511;49.746;6.094;2023-03-01T13:45:17;18.20;;;13.68;;
12886;SDS011;6511;49.746;6.094;2023-03-01T13:47:59;17.77;;;13.60;;
12886;SDS011;6511;49.746;6.094;2023-03-01T13:50:32;18.43;;;13.97;;
12886;SDS011;6511;49.746;6.094;2023-03-01T13:53:05;18.87;;;13.53;;
12886;SDS011;6511;49.746;6.094;2023-03-01T13:58:23;17.20;;;13.20;;
12886;SDS011;6511;49.746;6.094;2023-03-01T14:01:02;17.23;;;12.80;;
12886;SDS011;6511;49.746;6.094;2023-03-01T14:03:33;16.27;;;12.40;;
12886;SDS011;6511;49.746;6.094;2023-03-01T14:06:15;16.30;;;12.18;;
12886;SDS011;6511;49.746;6.094;2023-03-01T14:08:45;17.27;;;12.98;;
12886;SDS011;6511;49.746;6.094;2023-03-01T14:11:21;16.88;;;12.90;;
12886;SDS011;6511;49.746;6.094;2023-03-01T14:19:32;16.33;;;12.83;;
12886;SDS011;6511;49.746;6.094;2023-03-01T14:21:59;18.15;;;12.35;;
12886;SDS011;6511;49.746;6.094;2023-03-01T14:24:38;16.88;;;12.32;;
12886;SDS011;6511;49.746;6.094;2023-03-01T14:27:12;16.17;;;11.67;;
12886;SDS011;6511;49.746;6.094;2023-03-01T14:29:39;14.65;;;11.48;;
12886;SDS011;6511;49.746;6.094;2023-03-01T14:32:12;16.05;;;12.15;;
12886;SDS011;6511;49.746;6.094;2023-03-01T14:34:44;15.73;;;11.60;;
12886;SDS011;6511;49.746;6.094;2023-03-01T14:37:23;14.98;;;11.43;;
12886;SDS011;6511;49.746;6.094;2023-03-01T14:39:49;14.97;;;11.90;;
12886;SDS011;6511;49.746;6.094;2023-03-01T14:42:16;15.48;;;11.90;;
12886;SDS011;6511;49.746;6.094;2023-03-01T14:44:45;16.02;;;11.75;;
12886;SDS011;6511;49.746;6.094;2023-03-01T14:47:14;17.17;;;11.70;;
12886;SDS011;6511;49.746;6.094;2023-03-01T14:49:54;14.18;;;11.35;;
12886;SDS011;6511;49.746;6.094;2023-03-01T14:52:36;16.47;;;11.73;;
12886;SDS011;6511;49.746;6.094;2023-03-01T14:55:05;15.60;;;11.68;;
12886;SDS011;6511;49.746;6.094;2023-03-01T14:57:38;13.90;;;10.48;;
12886;SDS011;6511;49.746;6.094;2023-03-01T15:00:20;14.65;;;11.13;;
12886;SDS011;6511;49.746;6.094;2023-03-01T15:02:48;14.32;;;11.38;;
12886;SDS011;6511;49.746;6.094;2023-03-01T15:05:16;15.30;;;11.77;;
12886;SDS011;6511;49.746;6.094;2023-03-01T15:08:20;14.45;;;11.48;;
12886;SDS011;6511;49.746;6.094;2023-03-01T15:11:05;14.73;;;10.88;;
12886;SDS011;6511;49.746;6.094;2023-03-01T15:14:24;15.40;;;11.37;;
12886;SDS011;6511;49.746;6.094;2023-03-01T15:16:50;15.15;;;11.27;;
12886;SDS011;6511;49.746;6.094;2023-03-01T15:19:16;13.83;;;10.77;;
12886;SDS011;6511;49.746;6.094;2023-03-01T15:21:44;15.63;;;11.10;;
12886;SDS011;6511;49.746;6.094;2023-03-01T15:24:18;14.57;;;11.10;;
12886;SDS011;6511;49.746;6.094;2023-03-01T15:29:27;14.95;;;11.63;;
12886;SDS011;6511;49.746;6.094;2023-03-01T15:32:03;15.27;;;11.20;;
12886;SDS011;6511;49.746;6.094;2023-03-01T15:34:34;15.75;;;11.30;;
12886;SDS011;6511;49.746;6.094;2023-03-01T15:37:03;14.75;;;11.10;;
12886;SDS011;6511;49.746;6.094;2023-03-01T15:39:53;15.20;;;10.95;;
12886;SDS011;6511;49.746;6.094;2023-03-01T15:48:00;14.20;;;9.95;;
12886;SDS011;6511;49.746;6.094;2023-03-01T15:50:32;13.55;;;10.15;;
12886;SDS011;6511;49.746;6.094;2023-03-01T15:53:01;12.65;;;10.05;;
12886;SDS011;6511;49.746;6.094;2023-03-01T15:55:32;14.07;;;10.23;;
12886;SDS011;6511;49.746;6.094;2023-03-01T16:00:49;13.07;;;9.80;;
12886;SDS011;6511;49.746;6.094;2023-03-01T16:03:21;13.70;;;9.63;;
12886;SDS011;6511;49.746;6.094;2023-03-01T16:05:48;12.70;;;9.70;;
12886;SDS011;6511;49.746;6.094;2023-03-01T16:08:16;13.10;;;9.45;;
12886;SDS011;6511;49.746;6.094;2023-03-01T16:10:43;11.95;;;9.13;;
12886;SDS011;6511;49.746;6.094;2023-03-01T16:13:12;13.95;;;9.52;;
12886;SDS011;6511;49.746;6.094;2023-03-01T16:15:38;13.48;;;9.43;;
12886;SDS011;6511;49.746;6.094;2023-03-01T16:18:04;13.63;;;8.85;;
12886;SDS011;6511;49.746;6.094;2023-03-01T16:20:31;13.27;;;9.10;;
12886;SDS011;6511;49.746;6.094;2023-03-01T16:23:01;11.45;;;8.55;;
12886;SDS011;6511;49.746;6.094;2023-03-01T16:25:28;11.38;;;8.82;;
12886;SDS011;6511;49.746;6.094;2023-03-01T16:27:54;12.13;;;8.50;;
12886;SDS011;6511;49.746;6.094;2023-03-01T16:30:21;10.43;;;8.53;;
12886;SDS011;6511;49.746;6.094;2023-03-01T16:32:48;11.48;;;8.25;;
12886;SDS011;6511;49.746;6.094;2023-03-01T16:35:15;12.05;;;8.57;;
12886;SDS011;6511;49.746;6.094;2023-03-01T16:37:43;10.57;;;8.35;;
12886;SDS011;6511;49.746;6.094;2023-03-01T16:40:22;12.13;;;8.60;;
12886;SDS011;6511;49.746;6.094;2023-03-01T16:42:51;11.40;;;8.48;;
12886;SDS011;6511;49.746;6.094;2023-03-01T16:45:18;12.73;;;8.70;;
12886;SDS011;6511;49.746;6.094;2023-03-01T16:47:44;11.68;;;8.80;;
12886;SDS011;6511;49.746;6.094;2023-03-01T16:50:10;12.17;;;8.93;;
12886;SDS011;6511;49.746;6.094;2023-03-01T16:52:36;11.43;;;8.43;;
12886;SDS011;6511;49.746;6.094;2023-03-01T16:55:03;12.05;;;9.05;;
12886;SDS011;6511;49.746;6.094;2023-03-01T16:57:30;12.98;;;8.88;;